createdAt,value
2018-12-10T00:01:24.770Z,8.35
2018-12-10T00:03:53.969Z,8.53
2018-12-10T00:06:23.270Z,8.57
2018-12-10T00:08:52.451Z,8.55
2018-12-10T00:11:21.635Z,8.62
2018-12-10T00:13:50.765Z,8.40
2018-12-10T00:16:19.924Z,8.12
2018-12-10T00:18:49.067Z,8.36
2018-12-10T00:21:18.225Z,8.53
2018-12-10T00:23:47.537Z,8.13
2018-12-10T00:26:16.740Z,8.14
2018-12-10T00:28:45.872Z,8.26
2018-12-10T00:31:15.023Z,8.30
2018-12-10T00:33:44.145Z,8.34
2018-12-10T00:36:13.261Z,8.02
2018-12-10T00:38:42.670Z,8.11
2018-12-10T00:41:11.960Z,8.04
2018-12-10T00:43:41.560Z,8.12
2018-12-10T00:46:10.774Z,8.42
2018-12-10T00:48:40.232Z,8.45
2018-12-10T00:51:09.629Z,8.14
2018-12-10T00:53:38.805Z,8.31
2018-12-10T00:56:09.326Z,8.06
2018-12-10T00:58:38.526Z,8.11
2018-12-10T01:01:08.001Z,8.03
2018-12-10T01:03:37.167Z,7.83
2018-12-10T01:06:06.363Z,8.08
2018-12-10T01:08:35.889Z,8.05
2018-12-10T01:11:05.228Z,8.12
2018-12-10T01:13:34.553Z,8.03
2018-12-10T01:16:03.949Z,8.02
2018-12-10T01:18:33.099Z,7.65
2018-12-10T01:21:02.245Z,7.74
2018-12-10T01:23:31.559Z,7.93
2018-12-10T01:26:00.708Z,7.73
2018-12-10T01:28:29.934Z,7.85
2018-12-10T01:30:59.312Z,7.73
2018-12-10T01:33:28.444Z,8.12
2018-12-10T01:35:57.592Z,7.91
2018-12-10T01:38:27.004Z,8.02
2018-12-10T01:40:56.221Z,7.76
2018-12-10T01:43:25.578Z,7.67
2018-12-10T01:45:55.013Z,7.82
2018-12-10T01:48:24.787Z,7.86
2018-12-10T01:50:53.902Z,7.77
2018-12-10T01:53:22.949Z,7.79
2018-12-10T01:55:52.063Z,7.81
2018-12-10T01:58:21.202Z,7.74
2018-12-10T02:00:50.342Z,7.71
2018-12-10T02:03:19.974Z,7.71
2018-12-10T02:05:49.308Z,8.03
2018-12-10T02:08:18.444Z,7.68
2018-12-10T02:10:47.621Z,7.88
2018-12-10T02:13:17.163Z,7.77
2018-12-10T02:15:46.243Z,7.83
2018-12-10T02:18:15.380Z,7.71
2018-12-10T02:20:44.499Z,7.84
2018-12-10T02:23:13.713Z,7.85
2018-12-10T02:25:42.840Z,7.79
2018-12-10T02:28:12.000Z,7.97
2018-12-10T02:30:41.460Z,7.98
2018-12-10T02:33:10.622Z,8.17
2018-12-10T02:35:40.009Z,7.90
2018-12-10T02:38:09.221Z,7.83
2018-12-10T02:40:38.402Z,7.92
2018-12-10T02:43:07.740Z,8.18
2018-12-10T02:45:36.865Z,7.73
2018-12-10T02:48:06.012Z,8.13
2018-12-10T02:50:35.224Z,8.22
2018-12-10T02:53:04.787Z,7.96
2018-12-10T02:55:33.973Z,8.35
2018-12-10T02:58:03.035Z,7.99
2018-12-10T03:00:32.142Z,7.93
2018-12-10T03:03:01.413Z,7.71
2018-12-10T03:05:30.618Z,7.87
2018-12-10T03:07:59.714Z,7.91
2018-12-10T03:10:29.180Z,8.12
2018-12-10T03:12:58.729Z,7.82
2018-12-10T03:15:28.483Z,7.84
2018-12-10T03:17:57.590Z,8.08
2018-12-10T03:20:28.838Z,8.01
2018-12-10T03:22:58.256Z,7.69
2018-12-10T03:25:27.400Z,7.64
2018-12-10T03:27:56.563Z,7.78
2018-12-10T03:30:25.886Z,7.81
2018-12-10T03:35:23.463Z,7.79
2018-12-10T03:37:53.230Z,7.47
2018-12-10T03:40:22.467Z,7.57
2018-12-10T03:42:51.614Z,7.83
2018-12-10T03:45:21.048Z,7.72
2018-12-10T03:47:50.468Z,8.01
2018-12-10T03:50:19.895Z,8.01
2018-12-10T03:52:49.354Z,7.73
2018-12-10T03:55:18.593Z,7.65
2018-12-10T03:57:48.276Z,7.53
2018-12-10T04:00:17.494Z,7.55
2018-12-10T04:02:46.646Z,7.53
2018-12-10T04:05:16.057Z,7.79
2018-12-10T04:07:45.477Z,7.84
2018-12-10T04:10:14.966Z,8.01
2018-12-10T04:12:44.147Z,7.98
2018-12-10T04:15:13.701Z,7.61
2018-12-10T04:17:42.843Z,7.59
2018-12-10T04:20:12.300Z,7.62
2018-12-10T04:22:41.457Z,7.58
2018-12-10T04:25:11.085Z,7.47
2018-12-10T04:27:40.582Z,7.51
2018-12-10T04:30:10.026Z,7.41
2018-12-10T04:32:39.437Z,7.48
2018-12-10T04:35:08.562Z,7.58
2018-12-10T04:37:37.675Z,7.71
2018-12-10T04:40:07.114Z,7.57
2018-12-10T04:42:36.426Z,7.62
2018-12-10T04:45:06.526Z,7.83
2018-12-10T04:47:35.649Z,7.87
2018-12-10T04:50:05.447Z,7.55
2018-12-10T04:52:35.063Z,7.60
2018-12-10T04:55:04.530Z,7.65
2018-12-10T04:57:34.206Z,7.71
2018-12-10T05:00:03.549Z,7.64
2018-12-10T05:02:32.672Z,7.56
2018-12-10T05:05:01.840Z,7.59
2018-12-10T05:07:30.993Z,7.51
2018-12-10T05:10:00.701Z,7.43
2018-12-10T05:12:29.820Z,7.90
2018-12-10T05:14:58.992Z,7.59
2018-12-10T05:17:28.239Z,7.37
2018-12-10T05:19:57.472Z,7.50
2018-12-10T05:22:26.742Z,7.45
2018-12-10T05:24:56.074Z,7.55
2018-12-10T05:27:25.273Z,7.68
2018-12-10T05:29:54.473Z,7.47
2018-12-10T05:32:24.054Z,7.70
2018-12-10T05:34:54.896Z,7.59
2018-12-10T05:37:24.225Z,7.22
2018-12-10T05:39:53.507Z,7.30
2018-12-10T05:42:22.884Z,7.58
2018-12-10T05:44:52.618Z,7.61
2018-12-10T05:47:21.865Z,7.59
2018-12-10T05:49:51.181Z,7.43
2018-12-10T05:52:20.296Z,7.44
2018-12-10T05:54:49.647Z,7.88
2018-12-10T05:57:18.861Z,7.86
2018-12-10T05:59:48.406Z,7.43
2018-12-10T06:02:17.530Z,7.56
2018-12-10T06:04:46.639Z,7.51
2018-12-10T06:07:15.867Z,7.12
2018-12-10T06:09:44.985Z,7.44
2018-12-10T06:12:14.388Z,7.51
2018-12-10T06:14:43.649Z,7.22
2018-12-10T06:17:12.993Z,7.60
2018-12-10T06:19:42.876Z,7.52
2018-12-10T06:22:12.258Z,7.25
2018-12-10T06:24:41.762Z,6.98
2018-12-10T06:27:11.433Z,7.42
2018-12-10T06:29:40.682Z,7.16
2018-12-10T06:32:10.030Z,7.08
2018-12-10T06:34:39.343Z,7.62
2018-12-10T06:37:08.541Z,7.40
2018-12-10T06:39:37.911Z,7.22
2018-12-10T06:42:08.325Z,7.03
2018-12-10T06:44:37.830Z,7.89
2018-12-10T06:47:07.203Z,7.46
2018-12-10T06:49:36.577Z,7.50
2018-12-10T06:52:05.855Z,7.49
2018-12-10T06:54:35.040Z,7.58
2018-12-10T06:57:04.245Z,7.20
2018-12-10T06:59:33.407Z,7.53
2018-12-10T07:02:02.875Z,7.45
2018-12-10T07:04:32.289Z,7.25
2018-12-10T07:07:01.726Z,7.24
2018-12-10T07:09:30.974Z,7.23
2018-12-10T07:11:59.979Z,7.89
2018-12-10T07:14:29.105Z,7.76
2018-12-10T07:16:58.297Z,7.83
2018-12-10T07:19:27.481Z,7.84
2018-12-10T07:21:56.575Z,7.49
2018-12-10T07:24:26.100Z,7.43
2018-12-10T07:26:55.514Z,7.19
2018-12-10T07:29:25.678Z,7.78
2018-12-10T07:31:55.447Z,7.40
2018-12-10T07:34:24.800Z,7.85
2018-12-10T07:36:54.170Z,7.66
2018-12-10T07:39:23.473Z,7.54
2018-12-10T07:41:52.943Z,7.54
2018-12-10T07:44:22.301Z,8.21
2018-12-10T07:46:51.646Z,8.02
2018-12-10T07:49:20.926Z,7.29
2018-12-10T07:51:50.345Z,7.77
2018-12-10T07:54:19.935Z,7.57
2018-12-10T07:56:49.306Z,7.50
2018-12-10T07:59:18.816Z,7.56
2018-12-10T08:01:47.977Z,7.38
2018-12-10T08:04:17.477Z,7.51
2018-12-10T08:06:46.752Z,7.61
2018-12-10T08:09:16.191Z,7.37
2018-12-10T08:11:45.416Z,7.57
2018-12-10T08:14:14.676Z,7.55
2018-12-10T08:16:44.203Z,7.85
2018-12-10T08:19:13.388Z,7.79
2018-12-10T08:21:42.738Z,7.82
2018-12-10T08:24:11.959Z,7.90
2018-12-10T08:26:41.169Z,7.85
2018-12-10T08:29:10.636Z,7.67
2018-12-10T08:31:40.106Z,7.33
2018-12-10T08:34:09.185Z,7.89
2018-12-10T08:36:38.540Z,7.20
2018-12-10T08:39:08.187Z,7.01
2018-12-10T08:41:37.761Z,7.61
2018-12-10T08:44:06.924Z,7.18
2018-12-10T08:46:36.225Z,7.44
2018-12-10T08:49:05.373Z,8.01
2018-12-10T08:51:34.768Z,7.60
2018-12-10T08:54:03.931Z,7.51
2018-12-10T08:56:34.463Z,7.69
2018-12-10T08:59:03.931Z,7.41
2018-12-10T09:01:33.429Z,7.66
2018-12-10T09:04:02.806Z,7.53
2018-12-10T09:06:32.305Z,7.46
2018-12-10T09:09:01.779Z,7.35
2018-12-10T09:11:31.276Z,8.94
2018-12-10T09:14:00.415Z,8.33
2018-12-10T09:16:29.584Z,7.40
2018-12-10T09:18:58.768Z,7.34
2018-12-10T09:21:27.993Z,7.26
2018-12-10T09:23:57.438Z,7.20
2018-12-10T09:26:26.787Z,7.27
2018-12-10T09:28:56.010Z,7.11
2018-12-10T09:31:25.239Z,7.26
2018-12-10T09:33:54.421Z,7.23
2018-12-10T09:36:23.625Z,7.39
2018-12-10T09:38:52.805Z,7.18
2018-12-10T09:41:22.030Z,7.45
2018-12-10T09:43:51.497Z,7.26
2018-12-10T09:46:27.511Z,7.26
2018-12-10T09:48:52.074Z,7.04
2018-12-10T09:51:21.625Z,7.06
2018-12-10T09:53:51.215Z,7.44
2018-12-10T09:56:20.446Z,7.42
2018-12-10T09:58:49.774Z,7.64
2018-12-10T10:01:18.966Z,7.57
2018-12-10T10:03:48.189Z,7.58
2018-12-10T10:06:18.591Z,7.48
2018-12-10T10:08:49.627Z,7.50
2018-12-10T10:11:19.032Z,7.72
2018-12-10T10:13:48.161Z,7.43
2018-12-10T10:16:17.305Z,7.56
2018-12-10T10:18:46.639Z,7.56
2018-12-10T10:21:16.099Z,7.80
2018-12-10T10:23:45.858Z,7.37
2018-12-10T10:26:15.224Z,7.65
2018-12-10T10:28:44.790Z,7.82
2018-12-10T10:31:14.252Z,7.44
2018-12-10T10:33:43.980Z,7.23
2018-12-10T10:36:13.144Z,7.39
2018-12-10T10:38:42.515Z,7.61
2018-12-10T10:41:11.642Z,7.51
2018-12-10T10:43:40.834Z,7.56
2018-12-10T10:46:09.916Z,7.74
2018-12-10T10:48:40.113Z,7.60
2018-12-10T10:51:09.279Z,7.41
2018-12-10T10:53:38.580Z,7.46
2018-12-10T10:56:14.228Z,8.28
2018-12-10T10:58:44.110Z,7.74
2018-12-10T11:01:18.835Z,7.51
2018-12-10T11:03:48.199Z,7.67
2018-12-10T11:06:17.576Z,7.65
2018-12-10T11:08:46.693Z,7.56
2018-12-10T11:11:15.880Z,7.60
2018-12-10T11:13:45.371Z,7.90
2018-12-10T11:16:14.871Z,7.92
2018-12-10T11:18:44.114Z,8.21
2018-12-10T11:21:13.514Z,7.99
2018-12-10T11:23:42.945Z,8.29
2018-12-10T11:26:12.549Z,8.20
2018-12-10T11:28:42.058Z,7.60
2018-12-10T11:31:17.164Z,7.50
2018-12-10T11:33:43.087Z,7.96
2018-12-10T11:36:12.610Z,7.64
2018-12-10T11:38:42.177Z,7.47
2018-12-10T11:41:11.347Z,7.40
2018-12-10T11:43:40.483Z,7.42
2018-12-10T11:46:09.879Z,7.77
2018-12-10T11:48:39.100Z,7.98
2018-12-10T11:51:08.453Z,8.08
2018-12-10T11:53:37.690Z,7.58
2018-12-10T11:56:06.944Z,7.58
2018-12-10T11:58:36.085Z,7.72
2018-12-10T12:01:06.584Z,7.63
2018-12-10T12:03:35.696Z,7.81
2018-12-10T12:06:04.971Z,7.88
2018-12-10T12:08:34.102Z,7.82
2018-12-10T12:11:03.344Z,7.64
2018-12-10T12:13:32.804Z,7.62
2018-12-10T12:16:01.957Z,7.48
2018-12-10T12:18:31.108Z,7.56
2018-12-10T12:21:00.654Z,7.37
2018-12-10T12:23:29.919Z,7.68
2018-12-10T12:25:59.109Z,8.05
2018-12-10T12:31:11.937Z,7.32
2018-12-10T12:33:41.383Z,7.68
2018-12-10T12:36:10.577Z,7.66
2018-12-10T12:38:39.740Z,7.66
2018-12-10T12:41:09.329Z,7.49
2018-12-10T12:43:38.941Z,7.42
2018-12-10T12:46:08.228Z,7.96
2018-12-10T12:48:37.752Z,7.51
2018-12-10T12:51:07.195Z,7.87
2018-12-10T12:53:36.608Z,7.09
2018-12-10T12:56:06.362Z,7.36
2018-12-10T12:58:35.769Z,7.70
2018-12-10T13:01:05.078Z,7.40
2018-12-10T13:03:34.364Z,7.18
2018-12-10T13:06:06.884Z,7.42
2018-12-10T13:08:35.116Z,7.79
2018-12-10T13:11:04.448Z,7.55
2018-12-10T13:13:34.150Z,7.62
2018-12-10T13:16:03.657Z,7.36
2018-12-10T13:18:33.309Z,7.80
2018-12-10T13:21:02.915Z,7.36
2018-12-10T13:23:32.616Z,7.38
2018-12-10T13:26:02.129Z,7.92
2018-12-10T13:28:31.288Z,7.82
2018-12-10T13:31:00.774Z,7.48
2018-12-10T13:33:30.117Z,7.36
2018-12-10T13:35:59.314Z,7.17
2018-12-10T13:38:28.579Z,7.66
2018-12-10T13:40:57.787Z,7.73
2018-12-10T13:43:27.348Z,7.87
2018-12-10T13:45:56.710Z,8.42
2018-12-10T13:48:26.016Z,8.38
2018-12-10T13:50:55.808Z,8.03
2018-12-10T13:53:25.057Z,8.65
2018-12-10T13:55:54.463Z,8.60
2018-12-10T13:58:23.789Z,8.10
2018-12-10T14:00:53.048Z,8.01
2018-12-10T14:03:22.296Z,8.27
2018-12-10T14:05:58.578Z,8.00
2018-12-10T14:08:27.909Z,7.67
2018-12-10T14:10:57.488Z,7.52
2018-12-10T14:13:27.194Z,8.04
2018-12-10T14:15:56.517Z,7.79
2018-12-10T14:18:25.708Z,7.98
2018-12-10T14:20:55.052Z,7.61
2018-12-10T14:23:24.535Z,7.45
2018-12-10T14:25:53.864Z,8.02
2018-12-10T14:28:23.982Z,8.12
2018-12-10T14:30:53.277Z,8.09
2018-12-10T14:33:22.584Z,7.73
2018-12-10T14:35:52.030Z,7.43
2018-12-10T14:38:21.344Z,7.64
2018-12-10T14:40:51.575Z,8.07
2018-12-10T14:43:20.902Z,7.88
2018-12-10T14:45:50.110Z,7.52
2018-12-10T14:48:19.464Z,7.23
2018-12-10T14:50:49.363Z,7.48
2018-12-10T14:53:18.677Z,7.46
2018-12-10T14:55:48.006Z,7.60
2018-12-10T14:58:17.291Z,7.49
2018-12-10T15:00:46.676Z,7.29
2018-12-10T15:03:15.873Z,7.28
2018-12-10T15:05:45.126Z,7.46
2018-12-10T15:08:14.355Z,7.64
2018-12-10T15:10:43.887Z,7.94
2018-12-10T15:13:13.092Z,7.85
2018-12-10T15:15:42.794Z,7.95
2018-12-10T15:18:12.395Z,8.03
2018-12-10T15:20:41.810Z,8.08
2018-12-10T15:23:11.218Z,7.77
2018-12-10T15:25:40.723Z,7.92
2018-12-10T15:28:10.991Z,8.43
2018-12-10T15:30:40.624Z,7.49
2018-12-10T15:33:10.202Z,7.97
2018-12-10T15:35:39.646Z,7.67
2018-12-10T15:38:08.930Z,7.49
2018-12-10T15:40:38.711Z,7.51
2018-12-10T15:43:08.282Z,7.83
2018-12-10T15:45:37.845Z,7.23
2018-12-10T15:48:07.364Z,7.97
2018-12-10T15:50:37.160Z,8.07
2018-12-10T15:53:06.652Z,7.87
2018-12-10T15:55:36.044Z,7.62
2018-12-10T15:58:05.593Z,8.09
2018-12-10T16:00:34.799Z,8.06
2018-12-10T16:03:04.010Z,8.23
2018-12-10T16:05:33.169Z,7.61
2018-12-10T16:08:02.540Z,7.82
2018-12-10T16:10:31.769Z,7.62
2018-12-10T16:13:00.975Z,7.60
2018-12-10T16:15:30.242Z,8.25
2018-12-10T16:17:59.375Z,7.94
2018-12-10T16:20:28.567Z,7.56
2018-12-10T16:22:57.833Z,8.18
2018-12-10T16:25:27.049Z,8.01
2018-12-10T16:27:56.631Z,8.31
2018-12-10T16:30:26.254Z,6.90
2018-12-10T16:32:55.652Z,7.22
2018-12-10T16:35:24.949Z,6.94
2018-12-10T16:37:54.257Z,6.75
2018-12-10T16:40:23.516Z,6.98
2018-12-10T16:42:52.704Z,7.08
2018-12-10T16:45:21.958Z,7.08
2018-12-10T16:47:51.157Z,7.12
2018-12-10T16:50:20.369Z,7.02
2018-12-10T16:52:49.540Z,6.79
2018-12-10T16:55:18.794Z,7.04
2018-12-10T16:57:49.151Z,7.19
2018-12-10T17:00:18.554Z,7.39
2018-12-10T17:02:47.973Z,7.02
2018-12-10T17:05:17.137Z,7.20
2018-12-10T17:07:46.500Z,7.30
2018-12-10T17:10:15.917Z,7.74
2018-12-10T17:12:45.166Z,7.85
2018-12-10T17:15:14.385Z,7.18
2018-12-10T17:17:44.161Z,7.13
2018-12-10T17:20:13.536Z,7.28
2018-12-10T17:22:42.710Z,7.26
2018-12-10T17:25:12.441Z,7.29
2018-12-10T17:27:41.900Z,7.55
2018-12-10T17:30:11.572Z,7.42
2018-12-10T17:32:40.981Z,7.71
2018-12-10T17:35:10.376Z,7.45
2018-12-10T17:37:39.553Z,7.60
2018-12-10T17:40:09.783Z,7.65
2018-12-10T17:42:38.915Z,7.97
2018-12-10T17:45:09.288Z,8.02
2018-12-10T17:47:38.811Z,7.49
2018-12-10T17:50:11.301Z,7.17
2018-12-10T17:52:40.709Z,7.47
2018-12-10T17:55:10.107Z,7.23
2018-12-10T17:57:39.496Z,7.55
2018-12-10T18:00:11.408Z,7.04
2018-12-10T18:02:40.745Z,6.81
2018-12-10T18:05:10.235Z,6.94
2018-12-10T18:07:39.416Z,7.40
2018-12-10T18:10:09.133Z,7.30
2018-12-10T18:12:38.518Z,6.79
2018-12-10T18:15:08.161Z,7.10
2018-12-10T18:17:37.297Z,7.28
2018-12-10T18:20:10.168Z,7.12
2018-12-10T18:22:39.582Z,7.36
2018-12-10T18:25:08.781Z,7.05
2018-12-10T18:27:38.289Z,7.21
2018-12-10T18:30:10.018Z,7.00
2018-12-10T18:32:39.404Z,7.37
2018-12-10T18:35:10.602Z,7.16
2018-12-10T18:37:39.760Z,7.07
2018-12-10T18:40:12.959Z,7.44
2018-12-10T18:42:42.344Z,7.44
2018-12-10T18:45:17.272Z,6.98
2018-12-10T18:47:46.425Z,7.01
2018-12-10T18:50:15.826Z,7.35
2018-12-10T18:52:45.325Z,7.50
2018-12-10T18:55:15.187Z,6.99
2018-12-10T18:57:44.747Z,7.45
2018-12-10T19:00:15.073Z,7.11
2018-12-10T19:02:45.203Z,7.58
2018-12-10T19:05:14.629Z,7.49
2018-12-10T19:07:44.150Z,7.38
2018-12-10T19:10:13.716Z,7.68
2018-12-10T19:12:43.271Z,7.57
2018-12-10T19:15:12.529Z,7.65
2018-12-10T19:17:41.701Z,8.04
2018-12-10T19:20:13.723Z,7.49
2018-12-10T19:22:42.868Z,7.85
2018-12-10T19:25:12.026Z,7.77
2018-12-10T19:27:41.661Z,7.14
2018-12-10T19:30:11.067Z,7.44
2018-12-10T19:32:40.227Z,7.47
2018-12-10T19:35:09.429Z,6.64
2018-12-10T19:37:38.853Z,6.96
2018-12-10T19:40:08.886Z,6.93
2018-12-10T19:42:38.717Z,7.32
2018-12-10T19:45:09.341Z,7.29
2018-12-10T19:47:38.991Z,7.54
2018-12-10T19:50:11.564Z,7.71
2018-12-10T19:52:42.037Z,7.46
2018-12-10T19:55:11.398Z,7.16
2018-12-10T19:57:40.940Z,7.04
2018-12-10T20:00:10.841Z,7.31
2018-12-10T20:02:40.447Z,7.76
2018-12-10T20:05:09.897Z,7.60
2018-12-10T20:07:39.636Z,7.54
2018-12-10T20:10:10.624Z,7.48
2018-12-10T20:12:40.325Z,7.44
2018-12-10T20:15:10.298Z,7.86
2018-12-10T20:17:39.603Z,7.72
2018-12-10T20:20:10.013Z,7.16
2018-12-10T20:22:39.253Z,7.44
2018-12-10T20:25:09.471Z,7.51
2018-12-10T20:27:39.960Z,7.82
2018-12-10T20:30:09.674Z,7.21
2018-12-10T20:32:39.290Z,7.49
2018-12-10T20:35:10.464Z,7.55
2018-12-10T20:37:40.216Z,7.17
2018-12-10T20:40:10.306Z,7.54
2018-12-10T20:42:39.993Z,7.04
2018-12-10T20:45:10.858Z,6.79
2018-12-10T20:47:41.881Z,7.05
2018-12-10T20:50:11.162Z,7.24
2018-12-10T20:52:40.657Z,7.63
2018-12-10T20:55:10.109Z,7.26
2018-12-10T20:57:41.546Z,7.22
2018-12-10T21:00:11.770Z,7.55
2018-12-10T21:02:41.250Z,7.36
2018-12-10T21:05:10.993Z,6.93
2018-12-10T21:07:40.182Z,6.95
2018-12-10T21:10:10.709Z,6.83
2018-12-10T21:12:41.766Z,7.29
2018-12-10T21:15:11.063Z,7.23
2018-12-10T21:17:40.576Z,7.03
2018-12-10T21:20:10.741Z,7.15
2018-12-10T21:22:39.850Z,7.02
2018-12-10T21:25:09.000Z,6.98
2018-12-10T21:27:38.184Z,7.43
2018-12-10T21:30:08.450Z,7.28
2018-12-10T21:32:38.362Z,7.13
2018-12-10T21:35:08.149Z,7.48
2018-12-10T21:37:37.611Z,7.54
2018-12-10T21:40:07.189Z,7.63
2018-12-10T21:42:39.060Z,7.62
2018-12-10T21:45:09.045Z,7.22
2018-12-10T21:47:38.474Z,7.42
2018-12-10T21:50:07.765Z,7.29
2018-12-10T21:52:37.162Z,7.34
2018-12-10T21:55:07.181Z,7.06
2018-12-10T21:57:37.115Z,6.83
2018-12-10T22:00:06.818Z,6.89
2018-12-10T22:02:37.516Z,6.94
2018-12-10T22:05:06.980Z,6.94
2018-12-10T22:07:36.556Z,6.98
2018-12-10T22:10:06.184Z,6.97
2018-12-10T22:12:35.915Z,6.65
2018-12-10T22:15:06.509Z,6.82
2018-12-10T22:17:35.963Z,6.74
2018-12-10T22:20:05.665Z,6.90
2018-12-10T22:22:35.096Z,6.90
2018-12-10T22:25:04.874Z,7.17
2018-12-10T22:27:34.196Z,7.14
2018-12-10T22:30:03.596Z,7.26
2018-12-10T22:32:33.201Z,6.81
2018-12-10T22:35:03.667Z,7.26
2018-12-10T22:37:33.438Z,7.43
2018-12-10T22:40:02.971Z,7.26
2018-12-10T22:42:32.660Z,6.82
2018-12-10T22:45:02.443Z,7.05
2018-12-10T22:47:31.886Z,6.81
2018-12-10T22:50:02.199Z,6.84
2018-12-10T22:52:31.697Z,6.80
2018-12-10T22:55:01.360Z,6.88
2018-12-10T22:57:31.107Z,6.95
2018-12-10T23:00:00.824Z,7.07
2018-12-10T23:02:30.293Z,6.87
2018-12-10T23:05:00.279Z,6.89
2018-12-10T23:07:29.570Z,7.16
2018-12-10T23:09:59.191Z,6.77
2018-12-10T23:12:29.157Z,6.95
2018-12-10T23:14:58.678Z,6.86
2018-12-10T23:17:27.973Z,6.99
2018-12-10T23:19:57.711Z,6.79
2018-12-10T23:22:26.932Z,6.68
2018-12-10T23:24:56.171Z,6.76
2018-12-10T23:27:25.613Z,6.89
2018-12-10T23:29:55.067Z,6.83
2018-12-10T23:32:24.541Z,6.62
2018-12-10T23:34:53.849Z,6.60
2018-12-10T23:37:22.964Z,6.96
2018-12-10T23:39:52.432Z,6.87
2018-12-10T23:42:21.642Z,6.98
2018-12-10T23:44:54.674Z,6.74
2018-12-10T23:47:24.087Z,6.83
2018-12-10T23:49:53.669Z,6.82
2018-12-10T23:52:22.877Z,6.82
2018-12-10T23:54:51.985Z,6.81
2018-12-10T23:57:21.304Z,6.60
2018-12-10T23:59:50.441Z,6.74
